Time;durP1;ratioP1;P1;durP2;ratioP2;P2;SDS_P1;SDS_P2;PMS_P1;PMS_P2;Temp;Humidity;BMP_temperature;BMP_pressure;BME280_temperature;BME280_humidity;BME280_pressure;Samples;Min_cycle;Max_cycle;Signal;HPM_P1;HPM_P2
2021/11/10 00:01:22;;;;;;;2.03;1.60;;;2.10;98.00;;;;;;6185603;23;20465;-72
2021/11/10 00:03:48;;;;;;;1.20;1.00;;;2.00;98.00;;;;;;6185461;23;20481;-70
2021/11/10 00:06:16;;;;;;;1.77;1.70;;;2.00;98.00;;;;;;6195020;23;20921;-71
2021/11/10 00:08:43;;;;;;;1.93;1.30;;;2.00;98.00;;;;;;6185854;23;20873;-70
2021/11/10 00:11:11;;;;;;;1.40;1.30;;;2.00;98.00;;;;;;6185109;23;20419;-70
2021/11/10 00:13:39;;;;;;;1.30;1.00;;;2.20;98.00;;;;;;6185450;23;20403;-71
2021/11/10 00:16:06;;;;;;;3.47;1.60;;;2.30;98.00;;;;;;6185006;23;20399;-70
2021/11/10 00:18:34;;;;;;;1.80;1.40;;;2.50;98.00;;;;;;6185182;23;20461;-71
2021/11/10 00:21:02;;;;;;;1.70;1.50;;;2.60;98.00;;;;;;6184856;23;20403;-71
2021/11/10 00:23:29;;;;;;;1.87;1.50;;;2.30;98.00;;;;;;6184480;23;20400;-69
2021/11/10 00:25:56;;;;;;;1.40;1.23;;;2.20;98.00;;;;;;6184461;23;20769;-70
2021/11/10 00:28:23;;;;;;;2.70;2.03;;;2.10;98.00;;;;;;6158785;23;20403;-71
2021/11/10 00:30:52;;;;;;;3.03;1.50;;;2.10;98.00;;;;;;6185202;23;20455;-70
2021/11/10 00:33:20;;;;;;;1.40;1.20;;;2.10;98.00;;;;;;6184983;23;20399;-71
2021/11/10 00:35:47;;;;;;;1.53;1.30;;;2.20;98.00;;;;;;6184462;23;20423;-71
2021/11/10 00:38:17;;;;;;;2.07;1.93;;;2.30;98.00;;;;;;6184916;23;20458;-70
2021/11/10 00:40:44;;;;;;;1.53;1.27;;;2.40;98.00;;;;;;6184802;23;20426;-70
2021/11/10 00:43:12;;;;;;;1.20;1.00;;;2.60;98.00;;;;;;6185265;23;20469;-71
2021/11/10 00:45:40;;;;;;;1.70;1.47;;;2.60;98.00;;;;;;6158747;23;20457;-70
2021/11/10 00:48:10;;;;;;;1.20;1.00;;;2.50;98.00;;;;;;6184786;23;20880;-70
2021/11/10 00:50:38;;;;;;;1.27;1.23;;;2.50;98.00;;;;;;6184780;23;20431;-70
2021/11/10 00:53:08;;;;;;;1.20;0.90;;;2.30;98.00;;;;;;6185143;23;20407;-71
2021/11/10 00:55:36;;;;;;;2.00;1.47;;;2.30;98.00;;;;;;6184989;23;20407;-70
2021/11/10 00:58:04;;;;;;;1.70;1.30;;;2.20;98.00;;;;;;6184963;23;20399;-70
2021/11/10 01:00:31;;;;;;;1.20;1.07;;;2.00;98.00;;;;;;6184537;23;20431;-70
2021/11/10 01:02:58;;;;;;;1.60;1.30;;;2.10;98.00;;;;;;6184860;23;20414;-70
2021/11/10 01:05:27;;;;;;;1.20;1.00;;;2.10;98.00;;;;;;6184236;23;20467;-71
2021/11/10 01:07:55;;;;;;;1.30;1.20;;;2.20;98.00;;;;;;6184548;23;20477;-71
2021/11/10 01:10:24;;;;;;;1.43;1.30;;;2.30;98.00;;;;;;6184218;23;20914;-70
2021/11/10 01:12:51;;;;;;;2.37;1.97;;;2.40;98.00;;;;;;6184983;23;20403;-70
2021/11/10 01:15:21;;;;;;;1.83;1.30;;;2.20;98.00;;;;;;6184378;23;20432;-70
2021/11/10 01:17:48;;;;;;;1.30;1.20;;;2.10;98.00;;;;;;6184409;23;20402;-70
2021/11/10 01:20:17;;;;;;;1.40;1.30;;;1.90;98.00;;;;;;6184703;23;20493;-70
2021/11/10 01:22:46;;;;;;;1.50;1.30;;;1.70;98.00;;;;;;6184615;23;20452;-70
2021/11/10 01:25:13;;;;;;;13.60;1.50;;;1.70;98.00;;;;;;6158634;23;20454;-70
2021/11/10 01:27:41;;;;;;;1.67;1.67;;;1.80;98.00;;;;;;6184864;23;20457;-70
2021/11/10 01:30:11;;;;;;;1.40;1.27;;;1.80;98.00;;;;;;6184845;23;20782;-70
2021/11/10 01:32:38;;;;;;;1.20;1.10;;;1.80;98.00;;;;;;6185045;23;20415;-70
2021/11/10 01:35:06;;;;;;;1.20;1.10;;;2.00;98.00;;;;;;6184504;23;20427;-71
2021/11/10 01:37:33;;;;;;;1.20;1.10;;;2.00;98.00;;;;;;6184249;23;21017;-71
2021/11/10 01:40:01;;;;;;;1.30;1.20;;;2.10;98.00;;;;;;6184350;23;20435;-70
2021/11/10 01:42:30;;;;;;;1.90;1.40;;;1.90;98.00;;;;;;6184370;23;20450;-70
2021/11/10 01:44:58;;;;;;;2.03;1.67;;;1.70;98.00;;;;;;6184325;23;20446;-71
2021/11/10 01:47:25;;;;;;;1.43;1.40;;;1.70;98.00;;;;;;6183838;23;20431;-70
2021/11/10 01:49:52;;;;;;;3.93;1.77;;;1.80;98.00;;;;;;6184017;23;20870;-70
2021/11/10 01:52:19;;;;;;;1.90;1.60;;;1.80;98.00;;;;;;6184497;23;20407;-70
2021/11/10 01:54:46;;;;;;;1.53;1.20;;;1.70;98.00;;;;;;6184193;23;20403;-70
2021/11/10 01:57:15;;;;;;;1.43;1.20;;;1.60;98.00;;;;;;6184241;23;20400;-70
2021/11/10 01:59:43;;;;;;;1.97;1.70;;;1.60;98.00;;;;;;6183882;23;20434;-70
2021/11/10 02:02:19;;;;;;;3.20;1.43;;;1.60;98.00;;;;;;6184078;23;20415;-71
2021/11/10 02:04:47;;;;;;;1.57;1.47;;;1.70;98.00;;;;;;6184284;23;20407;-71
2021/11/10 02:07:14;;;;;;;1.60;1.50;;;1.70;98.00;;;;;;6184016;23;20457;-71
2021/11/10 02:09:43;;;;;;;1.50;1.20;;;1.60;98.00;;;;;;6184078;23;20441;-71
2021/11/10 02:12:12;;;;;;;1.20;1.10;;;1.50;98.00;;;;;;6184891;23;20435;-70
2021/11/10 02:14:41;;;;;;;1.20;1.00;;;1.40;98.00;;;;;;6185984;23;20400;-71
2021/11/10 02:17:12;;;;;;;1.50;1.30;;;1.40;98.00;;;;;;6186523;23;20817;-71
2021/11/10 02:19:43;;;;;;;1.20;1.00;;;1.30;98.00;;;;;;6186095;23;20508;-70
2021/11/10 02:22:14;;;;;;;1.63;1.30;;;1.30;98.00;;;;;;6159834;23;20427;-70
2021/11/10 02:24:42;;;;;;;1.20;0.97;;;1.30;98.00;;;;;;6186179;23;20410;-71
2021/11/10 02:27:17;;;;;;;1.20;1.10;;;1.30;98.00;;;;;;6186610;23;20398;-70
2021/11/10 02:29:44;;;;;;;1.57;1.53;;;1.40;98.00;;;;;;6185945;23;20394;-69
2021/11/10 02:32:13;;;;;;;1.93;1.53;;;1.30;98.00;;;;;;6160043;23;20481;-71
2021/11/10 02:34:41;;;;;;;2.33;2.17;;;1.40;98.00;;;;;;6185956;23;20400;-71
2021/11/10 02:37:09;;;;;;;1.20;1.03;;;1.30;98.00;;;;;;6186366;23;20862;-71
2021/11/10 02:39:38;;;;;;;1.20;1.00;;;1.30;98.00;;;;;;6186014;23;20430;-70
2021/11/10 02:42:07;;;;;;;1.33;1.27;;;1.50;98.00;;;;;;6186288;23;20406;-70
2021/11/10 02:44:35;;;;;;;1.90;1.20;;;1.70;98.00;;;;;;6185784;23;20411;-71
2021/11/10 02:47:02;;;;;;;1.20;1.00;;;1.80;98.00;;;;;;6186311;23;20481;-70
2021/11/10 02:49:30;;;;;;;1.20;1.10;;;2.00;98.00;;;;;;6185683;23;20490;-70
2021/11/10 02:52:08;;;;;;;1.20;1.00;;;1.90;98.00;;;;;;6185959;23;20409;-70
2021/11/10 02:54:41;;;;;;;2.23;1.30;;;1.80;98.00;;;;;;6186127;23;20409;-71
2021/11/10 02:57:09;;;;;;;1.20;1.00;;;1.90;98.00;;;;;;6185887;23;20399;-71
2021/11/10 02:59:37;;;;;;;1.20;1.00;;;2.00;98.00;;;;;;6185780;23;20735;-71
2021/11/10 03:02:05;;;;;;;1.17;1.00;;;2.00;98.00;;;;;;6185907;23;20419;-70
2021/11/10 03:04:34;;;;;;;1.20;1.00;;;1.90;98.00;;;;;;6185838;23;20703;-70
2021/11/10 03:07:03;;;;;;;1.20;1.10;;;1.80;98.00;;;;;;6185419;23;20398;-69
2021/11/10 03:09:32;;;;;;;1.80;1.40;;;1.70;98.00;;;;;;6185875;23;20427;-70
2021/11/10 03:12:02;;;;;;;3.17;1.40;;;1.70;98.00;;;;;;6185640;23;20402;-69
2021/11/10 03:14:31;;;;;;;1.20;1.00;;;1.50;98.00;;;;;;6185466;23;20399;-70
2021/11/10 03:17:00;;;;;;;4.33;1.13;;;1.70;98.00;;;;;;6159689;23;20402;-70
2021/11/10 03:19:30;;;;;;;1.20;1.20;;;1.70;98.00;;;;;;6159472;23;20928;-71
2021/11/10 03:21:58;;;;;;;1.40;1.20;;;1.80;98.00;;;;;;6185332;23;20407;-70
2021/11/10 03:24:32;;;;;;;1.20;1.00;;;1.80;98.00;;;;;;6185772;23;20473;-70
2021/11/10 03:27:00;;;;;;;1.20;1.13;;;1.60;98.00;;;;;;6161199;23;20406;-70
2021/11/10 03:29:28;;;;;;;1.83;1.40;;;1.60;98.00;;;;;;6185484;23;20485;-71
2021/11/10 03:31:55;;;;;;;1.43;1.20;;;1.70;98.00;;;;;;6185404;23;20418;-70
2021/11/10 03:34:22;;;;;;;1.20;1.13;;;1.80;98.00;;;;;;6185894;23;20418;-70
2021/11/10 03:36:50;;;;;;;2.07;1.20;;;1.80;98.00;;;;;;6159296;23;20408;-70
2021/11/10 03:39:18;;;;;;;1.40;1.30;;;1.90;98.00;;;;;;6185451;23;20414;-71
2021/11/10 03:41:46;;;;;;;1.60;1.20;;;1.70;98.00;;;;;;6159453;23;20403;-70
2021/11/10 03:44:15;;;;;;;1.20;1.10;;;1.60;98.00;;;;;;6159637;23;20715;-69
2021/11/10 03:46:45;;;;;;;3.00;2.27;;;1.50;98.00;;;;;;6185227;23;20514;-71
2021/11/10 03:49:12;;;;;;;1.37;1.17;;;1.30;98.00;;;;;;6185735;23;20890;-70
2021/11/10 03:51:39;;;;;;;1.20;1.00;;;1.20;98.00;;;;;;6185250;23;20454;-69
2021/11/10 03:54:06;;;;;;;1.30;1.03;;;1.30;98.00;;;;;;6159411;23;20423;-70
2021/11/10 03:56:33;;;;;;;1.80;1.70;;;1.40;98.00;;;;;;6185735;23;20419;-71
2021/11/10 03:59:01;;;;;;;2.80;1.53;;;1.40;98.00;;;;;;6185724;23;20418;-71
2021/11/10 04:01:29;;;;;;;1.43;1.37;;;1.60;98.00;;;;;;6185502;23;20485;-70
2021/11/10 04:03:56;;;;;;;1.20;1.20;;;1.60;98.00;;;;;;6185257;23;20407;-70
2021/11/10 04:06:24;;;;;;;1.40;1.30;;;1.60;98.00;;;;;;6185433;23;20400;-70
2021/11/10 04:08:51;;;;;;;1.50;1.50;;;1.70;98.00;;;;;;6185456;23;20406;-70
2021/11/10 04:11:20;;;;;;;1.20;1.10;;;1.80;98.00;;;;;;6185019;23;20437;-70
2021/11/10 04:13:47;;;;;;;2.60;1.20;;;1.80;98.00;;;;;;6184845;23;20453;-71
2021/11/10 04:16:20;;;;;;;2.03;1.43;;;1.70;98.00;;;;;;6185308;23;20406;-70
2021/11/10 04:18:49;;;;;;;2.20;1.47;;;1.40;98.00;;;;;;6185459;23;20399;-70
2021/11/10 04:21:18;;;;;;;1.30;1.13;;;1.30;98.00;;;;;;6184728;23;20403;-70
2021/11/10 04:23:48;;;;;;;1.20;1.17;;;1.40;98.00;;;;;;6185271;23;20403;-69
2021/11/10 04:26:15;;;;;;;1.17;1.00;;;1.30;98.00;;;;;;6185093;23;20788;-70
2021/11/10 04:28:42;;;;;;;1.30;1.20;;;1.20;98.00;;;;;;6184783;23;20983;-70
2021/11/10 04:31:09;;;;;;;1.23;1.23;;;1.20;98.00;;;;;;6185051;23;20447;-69
2021/11/10 04:33:36;;;;;;;1.20;1.00;;;1.20;98.00;;;;;;6185164;23;20403;-71
2021/11/10 04:36:06;;;;;;;3.43;1.40;;;1.40;98.00;;;;;;6184775;23;20723;-71
2021/11/10 04:38:33;;;;;;;1.30;1.20;;;1.40;98.00;;;;;;6185105;23;20755;-70
2021/11/10 04:41:00;;;;;;;1.60;1.40;;;1.30;98.00;;;;;;6184934;23;20407;-70
2021/11/10 04:43:27;;;;;;;1.10;1.00;;;1.40;98.00;;;;;;6184747;23;20407;-70
2021/11/10 04:46:01;;;;;;;2.13;1.67;;;1.50;98.00;;;;;;6184965;23;20470;-69
2021/11/10 04:48:28;;;;;;;1.70;1.30;;;1.40;98.00;;;;;;6155271;23;20770;-70
2021/11/10 04:50:55;;;;;;;1.20;1.00;;;1.40;98.00;;;;;;6155238;23;20748;-70
2021/11/10 04:53:24;;;;;;;2.00;1.70;;;1.30;98.00;;;;;;6155273;23;20462;-70
2021/11/10 04:55:51;;;;;;;1.60;1.20;;;1.50;98.00;;;;;;6154894;23;20399;-69
2021/11/10 04:58:18;;;;;;;1.30;1.30;;;1.50;98.00;;;;;;6155265;23;20417;-70
2021/11/10 05:00:46;;;;;;;1.10;0.90;;;1.30;98.00;;;;;;6155123;23;20828;-70
2021/11/10 05:03:13;;;;;;;1.30;1.30;;;1.20;98.00;;;;;;6154926;23;20412;-71
2021/11/10 05:05:41;;;;;;;1.70;1.53;;;1.30;98.00;;;;;;6154863;23;20414;-70
2021/11/10 05:08:08;;;;;;;1.20;1.00;;;1.20;98.00;;;;;;6155220;23;20458;-70
2021/11/10 05:10:36;;;;;;;1.20;1.00;;;1.10;98.00;;;;;;6155338;23;20738;-70
2021/11/10 05:13:03;;;;;;;2.57;1.73;;;1.20;98.00;;;;;;6155062;23;20407;-70
2021/11/10 05:15:31;;;;;;;1.20;1.10;;;1.40;98.00;;;;;;6154890;23;20407;-70
2021/11/10 05:17:58;;;;;;;1.10;1.00;;;1.20;98.00;;;;;;6154903;23;20408;-70
2021/11/10 05:20:25;;;;;;;1.20;1.10;;;1.10;98.00;;;;;;6154723;23;20725;-71
2021/11/10 05:22:55;;;;;;;1.87;1.40;;;1.00;98.00;;;;;;6154778;23;20539;-70
2021/11/10 05:25:22;;;;;;;1.50;1.37;;;0.90;98.00;;;;;;6154276;23;20813;-70
2021/11/10 05:27:51;;;;;;;1.30;1.10;;;1.00;98.00;;;;;;6154881;23;20416;-71
2021/11/10 05:30:18;;;;;;;3.27;1.87;;;1.10;98.00;;;;;;6154237;23;20518;-70
2021/11/10 05:32:45;;;;;;;1.20;1.00;;;1.20;98.00;;;;;;6128407;23;20403;-71
2021/11/10 05:35:13;;;;;;;1.87;1.77;;;1.10;98.00;;;;;;6154270;23;20871;-69
2021/11/10 05:37:40;;;;;;;1.20;1.00;;;1.10;98.00;;;;;;6153531;23;20404;-70
2021/11/10 05:40:09;;;;;;;2.80;1.67;;;1.20;98.00;;;;;;6153615;23;20439;-70
2021/11/10 05:42:37;;;;;;;1.73;1.63;;;1.00;98.00;;;;;;6153579;23;20408;-70
2021/11/10 05:45:07;;;;;;;1.50;1.33;;;0.90;98.00;;;;;;6154346;23;20408;-71
2021/11/10 05:47:34;;;;;;;1.20;1.10;;;0.80;98.00;;;;;;6174311;23;20434;-70
2021/11/10 05:50:02;;;;;;;1.20;1.03;;;0.80;98.00;;;;;;6184256;23;20781;-70
2021/11/10 05:52:29;;;;;;;1.20;1.10;;;0.90;98.00;;;;;;6158433;23;20402;-70
2021/11/10 05:54:56;;;;;;;1.93;1.77;;;1.00;98.00;;;;;;6158388;23;20415;-70
2021/11/10 05:57:24;;;;;;;3.40;1.30;;;1.10;98.00;;;;;;6184307;23;20419;-70
2021/11/10 05:59:51;;;;;;;1.87;1.30;;;1.20;98.00;;;;;;6184419;23;20403;-70
2021/11/10 06:02:21;;;;;;;1.20;1.10;;;1.20;98.00;;;;;;6184183;23;20403;-70
2021/11/10 06:04:48;;;;;;;1.63;1.20;;;1.20;98.00;;;;;;6184343;23;21276;-70
2021/11/10 06:07:15;;;;;;;1.20;1.10;;;1.30;98.00;;;;;;6158266;23;20406;-72
2021/11/10 06:09:43;;;;;;;1.10;1.00;;;1.40;98.00;;;;;;6184412;23;20731;-71
2021/11/10 06:12:11;;;;;;;1.10;1.00;;;1.30;98.00;;;;;;6184485;23;20489;-71
2021/11/10 06:14:38;;;;;;;5.10;1.63;;;1.20;98.00;;;;;;6184129;23;20406;-71
2021/11/10 06:17:07;;;;;;;1.73;1.43;;;1.10;98.00;;;;;;6184509;23;20403;-70
2021/11/10 06:19:36;;;;;;;1.20;1.20;;;1.10;98.00;;;;;;6184266;23;20423;-71
2021/11/10 06:22:03;;;;;;;3.20;1.30;;;1.10;98.00;;;;;;6183797;23;20404;-70
2021/11/10 06:24:30;;;;;;;1.10;1.00;;;1.10;98.00;;;;;;6184091;23;20418;-71
2021/11/10 06:26:57;;;;;;;1.10;1.00;;;1.10;98.00;;;;;;6184342;23;20428;-72
2021/11/10 06:29:24;;;;;;;1.57;1.50;;;1.20;98.00;;;;;;6184225;23;20865;-71
2021/11/10 06:31:52;;;;;;;1.60;1.53;;;1.20;98.00;;;;;;6184102;23;20435;-70
2021/11/10 06:34:20;;;;;;;1.30;1.30;;;1.30;98.00;;;;;;6184677;23;20406;-71
2021/11/10 06:36:48;;;;;;;1.40;1.20;;;1.20;98.00;;;;;;6184137;23;20458;-71
2021/11/10 06:39:16;;;;;;;1.20;1.00;;;1.30;98.00;;;;;;6184109;23;20403;-72
2021/11/10 06:41:44;;;;;;;1.20;1.00;;;1.20;98.00;;;;;;6184199;23;20399;-71
2021/11/10 06:44:12;;;;;;;1.67;1.47;;;1.20;98.00;;;;;;6184304;23;20485;-71
2021/11/10 06:46:39;;;;;;;1.20;1.17;;;1.20;98.00;;;;;;6152616;23;20539;-71
2021/11/10 06:49:07;;;;;;;1.20;1.00;;;1.10;98.00;;;;;;6154328;23;20423;-71
2021/11/10 06:51:34;;;;;;;1.20;1.00;;;1.20;98.00;;;;;;6154347;23;20432;-71
2021/11/10 06:54:02;;;;;;;1.20;1.10;;;1.40;98.00;;;;;;6154209;23;20798;-71
2021/11/10 06:56:29;;;;;;;1.67;1.47;;;1.30;98.00;;;;;;6154240;23;20419;-72
2021/11/10 06:58:57;;;;;;;1.20;1.00;;;1.30;98.00;;;;;;6155787;23;20406;-72
2021/11/10 07:01:25;;;;;;;1.20;1.00;;;1.20;98.00;;;;;;6156260;23;20459;-71
2021/11/10 07:03:52;;;;;;;1.20;1.00;;;1.30;98.00;;;;;;6155775;23;20399;-71
2021/11/10 07:06:20;;;;;;;1.50;1.30;;;1.30;98.00;;;;;;6155917;23;20403;-70
2021/11/10 07:08:48;;;;;;;1.57;1.20;;;1.20;98.00;;;;;;6154679;23;20431;-71
2021/11/10 07:11:16;;;;;;;1.37;1.10;;;1.00;98.00;;;;;;6156153;23;20428;-71
2021/11/10 07:13:43;;;;;;;1.30;1.10;;;1.00;98.00;;;;;;6155809;23;20886;-70
2021/11/10 07:16:10;;;;;;;1.20;1.17;;;1.00;98.00;;;;;;6156357;23;20466;-71
2021/11/10 07:18:39;;;;;;;2.17;1.33;;;1.20;98.00;;;;;;6129784;23;20481;-70
2021/11/10 07:21:06;;;;;;;1.90;1.43;;;1.30;98.00;;;;;;6155696;23;20506;-71
2021/11/10 07:23:33;;;;;;;1.10;1.00;;;1.50;98.00;;;;;;6155901;23;20867;-70
2021/11/10 07:26:00;;;;;;;5.63;1.70;;;1.60;98.00;;;;;;6155981;23;20407;-71
2021/11/10 07:28:29;;;;;;;1.43;1.43;;;1.70;98.00;;;;;;6156136;23;20415;-71
2021/11/10 07:30:57;;;;;;;3.00;1.60;;;1.70;98.00;;;;;;6155729;23;20487;-70
2021/11/10 07:33:24;;;;;;;1.93;1.73;;;1.80;98.00;;;;;;6156166;23;20399;-70
2021/11/10 07:35:51;;;;;;;2.13;1.30;;;1.90;98.00;;;;;;6155490;23;20790;-70
2021/11/10 07:38:20;;;;;;;4.00;1.47;;;1.80;98.00;;;;;;6156048;23;20454;-70
2021/11/10 07:40:48;;;;;;;1.20;1.00;;;2.00;98.00;;;;;;6156038;23;20396;-70
2021/11/10 07:43:17;;;;;;;1.20;1.00;;;2.10;98.00;;;;;;6156128;23;20396;-71
2021/11/10 07:45:50;;;;;;;1.30;1.10;;;2.10;98.00;;;;;;6154368;23;20477;-70
2021/11/10 07:48:18;;;;;;;1.20;1.10;;;2.30;98.00;;;;;;6184747;23;20527;-70
2021/11/10 07:50:45;;;;;;;1.77;1.20;;;2.30;98.00;;;;;;6186022;23;20419;-71
2021/11/10 07:53:12;;;;;;;1.20;1.13;;;2.30;98.00;;;;;;6185219;23;20473;-70
2021/11/10 07:55:39;;;;;;;1.17;1.10;;;2.50;98.00;;;;;;6184970;23;20426;-71
2021/11/10 07:58:06;;;;;;;2.23;1.43;;;2.50;98.00;;;;;;6184800;23;20498;-71
2021/11/10 08:00:34;;;;;;;1.20;1.10;;;2.50;98.00;;;;;;6185382;23;20404;-70
2021/11/10 08:03:03;;;;;;;3.00;1.80;;;2.50;98.00;;;;;;6159120;23;20442;-72
2021/11/10 08:05:31;;;;;;;1.30;1.10;;;2.50;98.00;;;;;;6185037;23;20407;-70
2021/11/10 08:07:59;;;;;;;1.63;1.30;;;2.50;98.00;;;;;;6157848;23;20404;-70
2021/11/10 08:10:26;;;;;;;1.30;1.20;;;2.60;98.00;;;;;;6182972;23;20437;-70
2021/11/10 08:12:53;;;;;;;1.40;1.20;;;2.70;98.00;;;;;;6183789;23;20460;-70
2021/11/10 08:15:20;;;;;;;1.20;1.00;;;2.80;98.00;;;;;;6183908;23;20937;-71
2021/11/10 08:17:47;;;;;;;1.63;1.60;;;2.90;98.00;;;;;;6184149;23;20412;-71
2021/11/10 08:20:18;;;;;;;1.40;1.17;;;3.00;98.00;;;;;;6183908;23;20792;-71
2021/11/10 08:22:51;;;;;;;1.40;1.33;;;3.10;98.00;;;;;;6184050;23;20407;-71
2021/11/10 08:25:19;;;;;;;2.73;1.43;;;3.00;98.00;;;;;;6183159;23;20750;-71
2021/11/10 08:27:47;;;;;;;1.30;1.27;;;3.00;98.00;;;;;;6183874;23;20400;-69
2021/11/10 08:30:16;;;;;;;1.37;1.23;;;3.10;98.00;;;;;;6183700;23;20458;-72
2021/11/10 08:32:45;;;;;;;2.13;1.70;;;3.10;98.00;;;;;;6157977;23;20434;-71
2021/11/10 08:35:15;;;;;;;1.50;1.40;;;3.10;98.00;;;;;;6183572;23;20985;-72
2021/11/10 08:37:43;;;;;;;2.07;1.40;;;3.10;98.00;;;;;;6157919;23;20427;-71
2021/11/10 08:40:11;;;;;;;1.93;1.40;;;3.20;98.00;;;;;;6183539;23;20407;-70
2021/11/10 08:42:42;;;;;;;1.20;1.17;;;3.30;98.00;;;;;;6183880;23;20929;-71
2021/11/10 08:45:12;;;;;;;1.30;1.10;;;3.40;98.00;;;;;;6183552;23;20514;-71
2021/11/10 08:47:41;;;;;;;1.73;1.40;;;3.50;98.00;;;;;;6151418;23;20478;-70
2021/11/10 08:50:10;;;;;;;1.20;0.90;;;3.50;98.00;;;;;;6150900;23;20771;-71
2021/11/10 08:52:39;;;;;;;1.87;1.40;;;3.60;98.00;;;;;;6152669;23;20561;-72
2021/11/10 08:55:08;;;;;;;1.67;1.40;;;3.60;98.00;;;;;;6153502;23;20405;-72
2021/11/10 08:57:36;;;;;;;2.43;1.27;;;3.60;98.00;;;;;;6151652;23;20800;-71
2021/11/10 09:00:05;;;;;;;1.40;1.30;;;3.60;98.00;;;;;;6127021;23;20405;-71
2021/11/10 09:02:33;;;;;;;2.17;1.43;;;3.80;98.00;;;;;;6153230;23;20769;-72
2021/11/10 09:05:00;;;;;;;1.50;1.10;;;3.80;98.00;;;;;;6152642;23;20405;-72
2021/11/10 09:07:28;;;;;;;1.40;1.33;;;3.60;98.00;;;;;;6153068;23;20405;-73
2021/11/10 09:09:56;;;;;;;1.30;1.20;;;3.60;98.00;;;;;;6151084;23;20411;-71
2021/11/10 09:12:23;;;;;;;1.40;1.10;;;3.60;98.00;;;;;;6152514;23;20428;-71
2021/11/10 09:14:51;;;;;;;1.30;1.30;;;3.60;98.00;;;;;;6152599;23;20416;-71
2021/11/10 09:17:19;;;;;;;2.07;1.33;;;3.60;98.00;;;;;;6151795;23;20421;-70
2021/11/10 09:19:46;;;;;;;1.70;1.43;;;3.60;98.00;;;;;;6154119;23;20416;-70
2021/11/10 09:22:13;;;;;;;1.20;1.10;;;3.80;98.00;;;;;;6153590;23;20401;-70
2021/11/10 09:24:40;;;;;;;2.70;1.53;;;3.90;98.00;;;;;;6153899;23;20410;-70
2021/11/10 09:27:08;;;;;;;1.30;1.10;;;4.10;98.00;;;;;;6153727;23;20400;-70
2021/11/10 09:29:37;;;;;;;1.20;1.00;;;4.20;98.00;;;;;;6153573;23;20460;-70
2021/11/10 09:32:04;;;;;;;1.73;1.27;;;4.30;98.00;;;;;;6153848;23;20671;-70
2021/11/10 09:34:33;;;;;;;1.27;1.20;;;4.40;98.00;;;;;;6153855;23;20409;-71
2021/11/10 09:37:00;;;;;;;1.40;1.37;;;4.40;98.00;;;;;;6152578;23;20407;-70
2021/11/10 09:39:27;;;;;;;2.33;1.23;;;4.50;98.00;;;;;;6153846;23;20479;-71
2021/11/10 09:41:56;;;;;;;1.20;1.10;;;4.60;98.00;;;;;;6153888;23;20400;-70
2021/11/10 09:44:26;;;;;;;1.87;1.73;;;4.80;98.00;;;;;;6128505;23;20421;-70
2021/11/10 09:46:55;;;;;;;1.53;1.37;;;5.00;98.00;;;;;;6165712;23;21061;-70
2021/11/10 09:49:22;;;;;;;1.20;1.00;;;4.90;98.00;;;;;;6184049;23;20471;-70
2021/11/10 09:51:50;;;;;;;1.60;1.20;;;4.90;98.00;;;;;;6184071;23;20432;-72
2021/11/10 09:54:18;;;;;;;1.87;1.20;;;4.90;98.00;;;;;;6184516;23;20460;-71
2021/11/10 09:56:47;;;;;;;1.30;1.20;;;5.10;98.00;;;;;;6184241;23;20405;-70
2021/11/10 09:59:14;;;;;;;1.67;1.50;;;5.30;98.00;;;;;;6184202;23;20481;-70
2021/11/10 10:01:43;;;;;;;1.30;1.20;;;5.30;98.00;;;;;;6184026;23;20400;-70
2021/11/10 10:04:12;;;;;;;1.40;1.23;;;5.30;98.00;;;;;;6184356;23;20408;-71
2021/11/10 10:06:40;;;;;;;1.40;1.30;;;5.40;98.00;;;;;;6184155;23;20400;-71
2021/11/10 10:09:07;;;;;;;2.27;2.13;;;5.40;98.00;;;;;;6184555;23;20981;-69
2021/11/10 10:11:34;;;;;;;1.80;1.67;;;5.50;98.00;;;;;;6183380;23;20934;-70
2021/11/10 10:14:03;;;;;;;1.47;1.30;;;5.30;98.00;;;;;;6184179;23;20480;-70
2021/11/10 10:16:31;;;;;;;1.40;1.30;;;5.20;98.00;;;;;;6184686;23;20410;-71
2021/11/10 10:19:10;;;;;;;2.23;1.60;;;5.10;98.00;;;;;;6184392;23;20415;-71
2021/11/10 10:21:40;;;;;;;1.53;1.50;;;5.30;98.00;;;;;;6184579;23;20392;-71
2021/11/10 10:26:49;;;;;;;3.60;2.40;;;5.20;98.00;;;;;;6183253;23;20428;-71
2021/11/10 10:29:19;;;;;;;2.03;1.70;;;5.40;98.00;;;;;;6183708;23;20423;-71
2021/11/10 10:31:46;;;;;;;2.70;1.27;;;5.40;98.00;;;;;;6183638;23;20428;-71
2021/11/10 10:34:18;;;;;;;3.00;2.80;;;5.40;98.00;;;;;;6185892;23;20403;-70
2021/11/10 10:36:47;;;;;;;1.67;1.20;;;5.50;98.00;;;;;;6185538;23;20424;-71
2021/11/10 10:39:17;;;;;;;2.93;2.03;;;5.70;98.00;;;;;;6185879;23;20868;-71
2021/11/10 10:41:46;;;;;;;1.73;1.50;;;5.80;98.00;;;;;;6185860;23;20396;-70
2021/11/10 10:44:15;;;;;;;1.87;1.30;;;5.80;98.00;;;;;;6160300;23;20420;-71
2021/11/10 10:46:44;;;;;;;3.20;1.90;;;5.90;98.00;;;;;;6185454;23;20427;-71
2021/11/10 10:49:18;;;;;;;1.40;1.13;;;6.10;98.00;;;;;;6185769;23;20419;-70
2021/11/10 10:51:47;;;;;;;3.10;1.43;;;6.10;98.00;;;;;;6185687;23;20429;-70
2021/11/10 10:54:14;;;;;;;2.33;1.67;;;6.10;98.00;;;;;;6186042;23;20699;-71
2021/11/10 10:56:43;;;;;;;2.20;2.00;;;6.10;98.00;;;;;;6185744;23;20405;-70
2021/11/10 10:59:12;;;;;;;2.17;1.60;;;6.40;98.00;;;;;;6185376;23;20399;-70
2021/11/10 11:01:41;;;;;;;1.30;1.20;;;6.40;98.00;;;;;;6159607;23;20415;-70
2021/11/10 11:04:10;;;;;;;1.30;1.30;;;6.40;98.00;;;;;;6159092;23;20484;-71
2021/11/10 11:06:42;;;;;;;10.40;1.67;;;6.40;98.00;;;;;;6185002;23;20458;-69
2021/11/10 11:09:13;;;;;;;1.50;1.47;;;6.60;98.00;;;;;;6185141;23;20479;-70
2021/11/10 11:11:46;;;;;;;8.37;2.10;;;6.70;98.00;;;;;;6160544;23;20406;-70
2021/11/10 11:14:25;;;;;;;3.00;2.17;;;6.70;98.00;;;;;;6185662;23;20454;-69
2021/11/10 11:17:04;;;;;;;1.50;1.20;;;6.80;98.00;;;;;;6185583;23;20394;-70
2021/11/10 11:19:34;;;;;;;1.97;1.27;;;6.80;98.00;;;;;;6185473;23;20402;-70
2021/11/10 11:22:02;;;;;;;1.57;1.47;;;6.90;98.00;;;;;;6185972;23;20406;-70
2021/11/10 11:24:40;;;;;;;2.50;1.53;;;6.90;98.00;;;;;;6185521;23;21150;-71
2021/11/10 11:27:27;;;;;;;1.30;1.17;;;7.00;98.00;;;;;;6185233;23;20406;-71
2021/11/10 11:30:02;;;;;;;1.53;1.43;;;7.20;98.00;;;;;;6185754;23;20767;-71
2021/11/10 11:32:34;;;;;;;2.57;1.70;;;7.30;98.00;;;;;;6186002;23;20501;-71
2021/11/10 11:35:04;;;;;;;3.37;1.50;;;7.50;98.00;;;;;;6185934;23;20405;-71
2021/11/10 11:37:34;;;;;;;1.47;1.20;;;7.60;98.00;;;;;;6185096;23;20406;-70
2021/11/10 11:40:08;;;;;;;2.00;1.80;;;7.80;98.00;;;;;;6185035;23;20910;-71
2021/11/10 11:42:35;;;;;;;1.97;1.63;;;7.70;98.00;;;;;;6185668;23;20514;-69
2021/11/10 11:45:02;;;;;;;1.83;1.63;;;7.60;98.00;;;;;;6184980;23;20727;-70
2021/11/10 11:47:29;;;;;;;1.30;1.30;;;7.70;98.00;;;;;;6184903;23;20507;-71
2021/11/10 11:50:02;;;;;;;1.43;1.20;;;7.80;98.00;;;;;;6185550;23;20506;-70
2021/11/10 11:52:32;;;;;;;1.30;1.20;;;7.90;98.00;;;;;;6185297;23;20434;-70
2021/11/10 11:55:06;;;;;;;1.27;1.23;;;7.90;98.00;;;;;;6185482;23;20504;-70
2021/11/10 11:57:35;;;;;;;5.43;1.37;;;8.10;98.00;;;;;;6185166;23;20403;-70
2021/11/10 12:00:03;;;;;;;1.40;1.33;;;8.20;98.00;;;;;;6185771;23;20709;-71
2021/11/10 12:02:36;;;;;;;1.30;1.23;;;8.30;98.00;;;;;;6185031;23;20425;-71
2021/11/10 12:05:18;;;;;;;3.50;1.60;;;8.50;98.00;;;;;;6185237;23;20404;-71
2021/11/10 12:07:51;;;;;;;1.77;1.20;;;8.60;98.00;;;;;;6160231;23;20867;-70
2021/11/10 12:10:43;;;;;;;1.20;1.20;;;9.00;98.00;;;;;;6185070;23;20486;-70
2021/11/10 12:13:22;;;;;;;1.90;1.60;;;9.20;98.00;;;;;;6178938;23;20513;-71
2021/11/10 12:16:17;;;;;;;1.90;1.80;;;9.30;98.00;;;;;;6185226;23;20491;-72
2021/11/10 12:18:59;;;;;;;1.93;1.50;;;9.50;98.00;;;;;;6183295;23;20399;-71
2021/11/10 12:21:36;;;;;;;1.80;1.63;;;9.60;98.00;;;;;;6184182;23;20408;-71
2021/11/10 12:24:28;;;;;;;1.20;1.10;;;9.80;98.00;;;;;;6183813;23;20413;-72
2021/11/10 12:27:16;;;;;;;2.30;2.00;;;9.90;98.00;;;;;;6183847;23;20773;-71
2021/11/10 12:29:58;;;;;;;1.53;1.47;;;10.10;98.00;;;;;;6159465;23;20413;-71
2021/11/10 12:32:42;;;;;;;2.47;1.87;;;10.10;98.00;;;;;;6184149;23;21096;-71
2021/11/10 12:35:28;;;;;;;1.90;1.80;;;10.00;98.00;;;;;;6184215;23;20420;-73
2021/11/10 12:37:56;;;;;;;1.87;1.30;;;9.80;98.00;;;;;;6183978;23;20411;-71
2021/11/10 12:40:26;;;;;;;3.03;2.07;;;9.80;98.00;;;;;;6183865;23;20466;-72
2021/11/10 12:42:58;;;;;;;1.30;1.30;;;9.70;98.00;;;;;;6184127;23;20397;-72
2021/11/10 12:45:29;;;;;;;2.23;1.70;;;9.80;98.00;;;;;;6184304;23;20406;-72
2021/11/10 12:47:58;;;;;;;1.60;1.27;;;9.90;98.00;;;;;;6183491;23;20431;-72
2021/11/10 12:50:34;;;;;;;3.60;1.30;;;10.00;98.00;;;;;;6183108;23;20413;-71
2021/11/10 12:53:04;;;;;;;1.97;1.57;;;10.20;98.00;;;;;;6156654;23;20442;-71
2021/11/10 12:55:34;;;;;;;2.17;1.83;;;10.40;98.00;;;;;;6183756;23;20400;-72
2021/11/10 12:58:15;;;;;;;2.73;2.20;;;10.40;98.00;;;;;;6183580;23;20411;-72
2021/11/10 13:00:43;;;;;;;2.63;1.87;;;10.30;98.00;;;;;;6183696;23;20402;-72
2021/11/10 13:03:26;;;;;;;1.97;1.87;;;10.10;98.00;;;;;;6183994;23;20412;-71
2021/11/10 13:06:06;;;;;;;1.40;1.30;;;10.00;98.00;;;;;;6193429;23;20395;-72
2021/11/10 13:08:56;;;;;;;1.33;1.27;;;9.90;98.00;;;;;;6184211;23;20481;-70
2021/11/10 13:11:27;;;;;;;4.27;1.90;;;10.00;98.00;;;;;;6184205;23;20408;-71